sensor_id;sensor_type;location;lat;lon;timestamp;pressure;altitude;pressure_sealevel;temperature;humidity
74218;BME280;62579;47.288;18.646;2023-03-08T00:00:23;98560.00;;;1.72;91.66
74218;BME280;62579;47.288;18.646;2023-03-08T00:02:48;98552.81;;;1.64;91.67
74218;BME280;62579;47.288;18.646;2023-03-08T00:05:13;98553.00;;;1.60;91.92
74218;BME280;62579;47.288;18.646;2023-03-08T00:07:39;98552.44;;;1.56;92.46
74218;BME280;62579;47.288;18.646;2023-03-08T00:10:04;98550.16;;;1.64;92.77
74218;BME280;62579;47.288;18.646;2023-03-08T00:12:29;98551.59;;;1.65;92.82
74218;BME280;62579;47.288;18.646;2023-03-08T00:14:54;98558.19;;;1.64;93.92
74218;BME280;62579;47.288;18.646;2023-03-08T00:17:20;98562.06;;;1.63;93.90
74218;BME280;62579;47.288;18.646;2023-03-08T00:19:45;98555.69;;;1.60;93.38
74218;BME280;62579;47.288;18.646;2023-03-08T00:22:10;98555.44;;;1.58;93.05
74218;BME280;62579;47.288;18.646;2023-03-08T00:24:36;98550.66;;;1.48;92.70
74218;BME280;62579;47.288;18.646;2023-03-08T00:27:01;98552.66;;;1.53;92.25
74218;BME280;62579;47.288;18.646;2023-03-08T00:29:26;98553.66;;;1.55;91.84
74218;BME280;62579;47.288;18.646;2023-03-08T00:31:51;98553.59;;;1.50;92.50
74218;BME280;62579;47.288;18.646;2023-03-08T00:34:17;98548.91;;;1.65;92.57
74218;BME280;62579;47.288;18.646;2023-03-08T00:36:42;98543.13;;;1.52;92.56
74218;BME280;62579;47.288;18.646;2023-03-08T00:39:08;98554.69;;;1.58;94.01
74218;BME280;62579;47.288;18.646;2023-03-08T00:41:33;98556.12;;;1.59;93.55
74218;BME280;62579;47.288;18.646;2023-03-08T00:43:58;98557.59;;;1.74;92.75
74218;BME280;62579;47.288;18.646;2023-03-08T00:46:24;98542.47;;;1.57;95.06
74218;BME280;62579;47.288;18.646;2023-03-08T00:48:49;98547.66;;;1.60;95.29
74218;BME280;62579;47.288;18.646;2023-03-08T00:51:15;98547.38;;;1.58;95.39
74218;BME280;62579;47.288;18.646;2023-03-08T00:53:41;98553.63;;;1.70;95.11
74218;BME280;62579;47.288;18.646;2023-03-08T00:56:06;98548.91;;;1.65;94.91
74218;BME280;62579;47.288;18.646;2023-03-08T00:58:32;98554.28;;;1.65;94.84
74218;BME280;62579;47.288;18.646;2023-03-08T01:00:57;98558.19;;;1.64;94.34
74218;BME280;62579;47.288;18.646;2023-03-08T01:03:23;98559.97;;;1.52;95.16
74218;BME280;62579;47.288;18.646;2023-03-08T01:05:49;98569.19;;;1.66;94.92
74218;BME280;62579;47.288;18.646;2023-03-08T01:08:15;98569.03;;;1.75;95.04
74218;BME280;62579;47.288;18.646;2023-03-08T01:10:45;98562.22;;;1.74;95.74
74218;BME280;62579;47.288;18.646;2023-03-08T01:13:11;98556.44;;;1.81;94.88
74218;BME280;62579;47.288;18.646;2023-03-08T01:15:37;98562.66;;;1.72;94.61
74218;BME280;62579;47.288;18.646;2023-03-08T01:18:02;98567.34;;;1.57;95.60
74218;BME280;62579;47.288;18.646;2023-03-08T01:20:28;98582.41;;;1.55;95.75
74218;BME280;62579;47.288;18.646;2023-03-08T01:22:53;98576.97;;;1.49;95.83
74218;BME280;62579;47.288;18.646;2023-03-08T01:25:18;98569.13;;;1.46;95.78
74218;BME280;62579;47.288;18.646;2023-03-08T01:27:43;98574.25;;;1.29;95.96
74218;BME280;62579;47.288;18.646;2023-03-08T01:30:08;98571.53;;;1.00;97.20
74218;BME280;62579;47.288;18.646;2023-03-08T01:32:34;98573.50;;;0.85;97.57
74218;BME280;62579;47.288;18.646;2023-03-08T01:34:59;98578.66;;;0.74;98.86
74218;BME280;62579;47.288;18.646;2023-03-08T01:37:28;98585.13;;;0.67;99.79
74218;BME280;62579;47.288;18.646;2023-03-08T01:39:53;98592.31;;;0.76;100.00
74218;BME280;62579;47.288;18.646;2023-03-08T01:42:19;98595.88;;;0.58;100.00
74218;BME280;62579;47.288;18.646;2023-03-08T01:44:57;98595.50;;;0.50;100.00
74218;BME280;62579;47.288;18.646;2023-03-08T01:47:24;98603.00;;;0.61;100.00
74218;BME280;62579;47.288;18.646;2023-03-08T01:49:51;98621.28;;;0.62;100.00
74218;BME280;62579;47.288;18.646;2023-03-08T01:54:42;98626.56;;;0.72;100.00
74218;BME280;62579;47.288;18.646;2023-03-08T01:57:14;98627.69;;;0.80;100.00
74218;BME280;62579;47.288;18.646;2023-03-08T01:59:41;98634.13;;;0.73;100.00
74218;BME280;62579;47.288;18.646;2023-03-08T02:02:06;98639.25;;;0.86;100.00
74218;BME280;62579;47.288;18.646;2023-03-08T02:04:32;98630.91;;;0.84;100.00
74218;BME280;62579;47.288;18.646;2023-03-08T02:06:57;98628.97;;;0.84;100.00
74218;BME280;62579;47.288;18.646;2023-03-08T02:09:23;98629.19;;;0.81;100.00
74218;BME280;62579;47.288;18.646;2023-03-08T02:11:48;98618.78;;;0.59;100.00
74218;BME280;62579;47.288;18.646;2023-03-08T02:14:14;98629.69;;;0.70;100.00
74218;BME280;62579;47.288;18.646;2023-03-08T02:16:39;98631.81;;;0.66;100.00
74218;BME280;62579;47.288;18.646;2023-03-08T02:19:06;98631.19;;;0.71;99.56
74218;BME280;62579;47.288;18.646;2023-03-08T02:21:36;98634.22;;;0.79;99.25
74218;BME280;62579;47.288;18.646;2023-03-08T02:24:04;98632.03;;;0.92;98.48
74218;BME280;62579;47.288;18.646;2023-03-08T02:26:29;98647.94;;;0.95;97.74
74218;BME280;62579;47.288;18.646;2023-03-08T02:28:55;98642.94;;;0.88;97.38
74218;BME280;62579;47.288;18.646;2023-03-08T02:31:20;98649.06;;;0.89;96.99
74218;BME280;62579;47.288;18.646;2023-03-08T02:33:45;98657.09;;;0.89;96.99
74218;BME280;62579;47.288;18.646;2023-03-08T02:36:10;98653.03;;;0.93;96.65
74218;BME280;62579;47.288;18.646;2023-03-08T02:38:36;98664.38;;;0.88;96.62
74218;BME280;62579;47.288;18.646;2023-03-08T02:41:01;98664.00;;;0.95;96.04
74218;BME280;62579;47.288;18.646;2023-03-08T02:43:26;98674.09;;;1.00;96.28
74218;BME280;62579;47.288;18.646;2023-03-08T02:45:51;98676.75;;;1.00;95.93
74218;BME280;62579;47.288;18.646;2023-03-08T02:48:17;98675.41;;;1.05;96.16
74218;BME280;62579;47.288;18.646;2023-03-08T02:50:43;98669.84;;;1.08;95.95
74218;BME280;62579;47.288;18.646;2023-03-08T02:53:08;98669.41;;;1.10;95.65
74218;BME280;62579;47.288;18.646;2023-03-08T02:55:34;98671.34;;;1.09;95.94
74218;BME280;62579;47.288;18.646;2023-03-08T02:58:00;98672.63;;;1.14;96.20
74218;BME280;62579;47.288;18.646;2023-03-08T03:00:25;98670.25;;;1.31;95.30
74218;BME280;62579;47.288;18.646;2023-03-08T03:02:51;98671.34;;;1.24;95.94
74218;BME280;62579;47.288;18.646;2023-03-08T03:05:16;98665.81;;;1.28;96.49
74218;BME280;62579;47.288;18.646;2023-03-08T03:07:41;98664.12;;;1.30;97.03
74218;BME280;62579;47.288;18.646;2023-03-08T03:10:07;98664.72;;;1.34;97.33
74218;BME280;62579;47.288;18.646;2023-03-08T03:12:33;98657.75;;;1.28;97.95
74218;BME280;62579;47.288;18.646;2023-03-08T03:14:59;98660.44;;;1.28;98.01
74218;BME280;62579;47.288;18.646;2023-03-08T03:17:25;98653.16;;;1.28;98.07
74218;BME280;62579;47.288;18.646;2023-03-08T03:19:50;98650.91;;;1.27;98.23
74218;BME280;62579;47.288;18.646;2023-03-08T03:22:15;98646.22;;;1.36;98.60
74218;BME280;62579;47.288;18.646;2023-03-08T03:24:40;98646.03;;;1.40;99.18
74218;BME280;62579;47.288;18.646;2023-03-08T03:27:06;98644.28;;;1.37;99.53
74218;BME280;62579;47.288;18.646;2023-03-08T03:29:31;98652.87;;;1.41;100.00
74218;BME280;62579;47.288;18.646;2023-03-08T03:31:56;98661.75;;;1.47;100.00
74218;BME280;62579;47.288;18.646;2023-03-08T03:34:21;98674.75;;;1.54;100.00
74218;BME280;62579;47.288;18.646;2023-03-08T03:36:46;98675.59;;;1.60;100.00
74218;BME280;62579;47.288;18.646;2023-03-08T03:39:12;98682.53;;;1.66;100.00
74218;BME280;62579;47.288;18.646;2023-03-08T03:41:37;98688.63;;;1.81;100.00
74218;BME280;62579;47.288;18.646;2023-03-08T03:44:02;98693.78;;;2.00;100.00
74218;BME280;62579;47.288;18.646;2023-03-08T03:46:27;98691.66;;;2.04;100.00
74218;BME280;62579;47.288;18.646;2023-03-08T03:48:53;98695.47;;;1.83;100.00
74218;BME280;62579;47.288;18.646;2023-03-08T03:51:19;98703.69;;;1.94;100.00
74218;BME280;62579;47.288;18.646;2023-03-08T03:53:44;98708.94;;;2.03;100.00
74218;BME280;62579;47.288;18.646;2023-03-08T03:56:20;98716.53;;;2.04;100.00
74218;BME280;62579;47.288;18.646;2023-03-08T03:58:45;98716.34;;;2.08;100.00
74218;BME280;62579;47.288;18.646;2023-03-08T04:01:13;98727.38;;;2.10;100.00
74218;BME280;62579;47.288;18.646;2023-03-08T04:03:39;98731.06;;;2.12;99.60
74218;BME280;62579;47.288;18.646;2023-03-08T04:06:08;98730.50;;;2.08;99.00
74218;BME280;62579;47.288;18.646;2023-03-08T04:08:34;98729.19;;;2.18;99.04
74218;BME280;62579;47.288;18.646;2023-03-08T04:10:59;98730.22;;;2.06;98.78
74218;BME280;62579;47.288;18.646;2023-03-08T04:13:24;98729.19;;;2.18;98.77
74218;BME280;62579;47.288;18.646;2023-03-08T04:15:50;98720.41;;;2.18;98.57
74218;BME280;62579;47.288;18.646;2023-03-08T04:18:15;98729.75;;;2.22;98.69
74218;BME280;62579;47.288;18.646;2023-03-08T04:20:40;98736.66;;;2.29;98.22
74218;BME280;62579;47.288;18.646;2023-03-08T04:23:05;98737.88;;;2.28;98.17
74218;BME280;62579;47.288;18.646;2023-03-08T04:25:30;98729.91;;;2.33;97.92
74218;BME280;62579;47.288;18.646;2023-03-08T04:27:56;98735.94;;;2.28;97.71
74218;BME280;62579;47.288;18.646;2023-03-08T04:30:21;98738.53;;;2.23;98.17
74218;BME280;62579;47.288;18.646;2023-03-08T04:32:46;98741.22;;;2.23;98.12
74218;BME280;62579;47.288;18.646;2023-03-08T04:35:12;98745.19;;;2.27;97.97
74218;BME280;62579;47.288;18.646;2023-03-08T04:37:37;98744.63;;;2.23;97.61
74218;BME280;62579;47.288;18.646;2023-03-08T04:40:03;98746.19;;;2.30;97.48
74218;BME280;62579;47.288;18.646;2023-03-08T04:42:31;98744.09;;;2.19;97.32
74218;BME280;62579;47.288;18.646;2023-03-08T04:44:57;98736.88;;;2.25;97.29
74218;BME280;62579;47.288;18.646;2023-03-08T04:47:22;98745.00;;;2.31;97.21
74218;BME280;62579;47.288;18.646;2023-03-08T04:49:47;98740.28;;;2.26;96.94
74218;BME280;62579;47.288;18.646;2023-03-08T04:52:12;98732.78;;;2.30;97.02
74218;BME280;62579;47.288;18.646;2023-03-08T04:54:37;98734.53;;;2.18;97.05
74218;BME280;62579;47.288;18.646;2023-03-08T04:57:02;98741.94;;;2.23;97.27
74218;BME280;62579;47.288;18.646;2023-03-08T04:59:28;98741.22;;;2.23;97.06
74218;BME280;62579;47.288;18.646;2023-03-08T05:01:53;98733.88;;;2.23;97.40
74218;BME280;62579;47.288;18.646;2023-03-08T05:04:18;98736.31;;;2.21;97.49
74218;BME280;62579;47.288;18.646;2023-03-08T05:06:43;98738.53;;;2.23;97.39
74218;BME280;62579;47.288;18.646;2023-03-08T05:09:08;98740.47;;;2.22;97.34
74218;BME280;62579;47.288;18.646;2023-03-08T05:11:34;98733.25;;;2.14;97.25
74218;BME280;62579;47.288;18.646;2023-03-08T05:13:59;98740.22;;;2.20;96.77
74218;BME280;62579;47.288;18.646;2023-03-08T05:16:24;98740.22;;;2.20;96.91
74218;BME280;62579;47.288;18.646;2023-03-08T05:18:50;98738.63;;;2.14;97.15
74218;BME280;62579;47.288;18.646;2023-03-08T05:21:16;98741.41;;;2.19;96.69
74218;BME280;62579;47.288;18.646;2023-03-08T05:23:42;98752.41;;;2.21;96.59
74218;BME280;62579;47.288;18.646;2023-03-08T05:26:09;98745.28;;;2.18;96.45
74218;BME280;62579;47.288;18.646;2023-03-08T05:28:35;98747.44;;;2.14;97.02
74218;BME280;62579;47.288;18.646;2023-03-08T05:33:28;98760.50;;;1.92;97.14
74218;BME280;62579;47.288;18.646;2023-03-08T05:35:53;98769.56;;;2.09;96.70
74218;BME280;62579;47.288;18.646;2023-03-08T05:38:20;98763.06;;;2.16;96.28
74218;BME280;62579;47.288;18.646;2023-03-08T05:40:45;98774.72;;;2.13;96.90
74218;BME280;62579;47.288;18.646;2023-03-08T05:43:10;98781.66;;;2.19;96.44
74218;BME280;62579;47.288;18.646;2023-03-08T05:45:35;98785.75;;;2.15;97.04
74218;BME280;62579;47.288;18.646;2023-03-08T05:48:01;98795.09;;;2.19;96.72
74218;BME280;62579;47.288;18.646;2023-03-08T05:50:26;98794.81;;;2.17;96.42
74218;BME280;62579;47.288;18.646;2023-03-08T05:52:51;98796.66;;;2.26;96.38
74218;BME280;62579;47.288;18.646;2023-03-08T05:55:16;98801.28;;;2.25;96.61
74218;BME280;62579;47.288;18.646;2023-03-08T05:57:41;98809.59;;;2.27;96.78
74218;BME280;62579;47.288;18.646;2023-03-08T06:00:07;98809.88;;;2.29;96.71
74218;BME280;62579;47.288;18.646;2023-03-08T06:02:32;98810.72;;;2.35;96.63
74218;BME280;62579;47.288;18.646;2023-03-08T06:04:57;98808.78;;;2.36;96.57
74218;BME280;62579;47.288;18.646;2023-03-08T06:07:23;98815.34;;;2.35;97.24
74218;BME280;62579;47.288;18.646;2023-03-08T06:09:48;98816.25;;;2.47;97.08
74218;BME280;62579;47.288;18.646;2023-03-08T06:12:15;98821.44;;;2.50;96.80
74218;BME280;62579;47.288;18.646;2023-03-08T06:14:40;98815.94;;;2.59;96.73
74218;BME280;62579;47.288;18.646;2023-03-08T06:17:06;98822.31;;;2.62;96.97
74218;BME280;62579;47.288;18.646;2023-03-08T06:19:31;98827.16;;;2.58;97.78
74218;BME280;62579;47.288;18.646;2023-03-08T06:21:56;98835.47;;;2.74;98.80
74218;BME280;62579;47.288;18.646;2023-03-08T06:24:21;98837.41;;;2.74;97.76
74218;BME280;62579;47.288;18.646;2023-03-08T06:26:47;98827.75;;;2.82;97.01
74218;BME280;62579;47.288;18.646;2023-03-08T06:29:12;98841.06;;;2.91;96.38
74218;BME280;62579;47.288;18.646;2023-03-08T06:31:37;98838.22;;;2.80;96.79
74218;BME280;62579;47.288;18.646;2023-03-08T06:34:03;98840.38;;;2.76;96.49
74218;BME280;62579;47.288;18.646;2023-03-08T06:36:28;98852.88;;;2.79;96.34
74218;BME280;62579;47.288;18.646;2023-03-08T06:38:53;98849.59;;;2.89;95.94
74218;BME280;62579;47.288;18.646;2023-03-08T06:41:19;98843.06;;;2.96;95.71
74218;BME280;62579;47.288;18.646;2023-03-08T06:43:44;98853.19;;;3.01;95.72
74218;BME280;62579;47.288;18.646;2023-03-08T06:46:10;98856.94;;;3.09;94.97
74218;BME280;62579;47.288;18.646;2023-03-08T06:48:36;98862.97;;;3.04;95.57
74218;BME280;62579;47.288;18.646;2023-03-08T06:51:01;98865.13;;;3.00;95.82
74218;BME280;62579;47.288;18.646;2023-03-08T06:53:27;98865.13;;;3.00;96.08
74218;BME280;62579;47.288;18.646;2023-03-08T06:55:52;98873.72;;;3.04;96.25
74218;BME280;62579;47.288;18.646;2023-03-08T06:58:18;98880.84;;;3.07;96.33
74218;BME280;62579;47.288;18.646;2023-03-08T07:00:43;98872.13;;;3.12;96.49
74218;BME280;62579;47.288;18.646;2023-03-08T07:03:09;98885.94;;;3.20;96.86
74218;BME280;62579;47.288;18.646;2023-03-08T07:05:35;98883.03;;;3.23;97.25
74218;BME280;62579;47.288;18.646;2023-03-08T07:08:00;98881.97;;;3.35;96.80
74218;BME280;62579;47.288;18.646;2023-03-08T07:10:25;98886.69;;;3.40;96.82
74218;BME280;62579;47.288;18.646;2023-03-08T07:12:50;98895.69;;;3.37;97.25
74218;BME280;62579;47.288;18.646;2023-03-08T07:15:16;98897.31;;;3.49;96.65
74218;BME280;62579;47.288;18.646;2023-03-08T07:17:43;98895.69;;;3.37;96.47
74218;BME280;62579;47.288;18.646;2023-03-08T07:20:09;98904.37;;;3.47;97.04
74218;BME280;62579;47.288;18.646;2023-03-08T07:22:34;98905.44;;;3.55;96.34
74218;BME280;62579;47.288;18.646;2023-03-08T07:25:00;98911.44;;;3.64;96.29
74218;BME280;62579;47.288;18.646;2023-03-08T07:27:25;98907.38;;;3.75;96.64
74218;BME280;62579;47.288;18.646;2023-03-08T07:29:50;98914.09;;;3.85;97.14
74218;BME280;62579;47.288;18.646;2023-03-08T07:32:16;98918.59;;;3.93;97.97
74218;BME280;62579;47.288;18.646;2023-03-08T07:34:41;98920.22;;;4.05;98.01
74218;BME280;62579;47.288;18.646;2023-03-08T07:37:13;98931.72;;;4.06;98.97
74218;BME280;62579;47.288;18.646;2023-03-08T07:39:38;98931.03;;;4.11;98.99
74218;BME280;62579;47.288;18.646;2023-03-08T07:42:03;98935.06;;;4.21;98.56
74218;BME280;62579;47.288;18.646;2023-03-08T07:44:29;98938.31;;;4.31;98.96
74218;BME280;62579;47.288;18.646;2023-03-08T07:46:54;98936.97;;;4.41;98.83
74218;BME280;62579;47.288;18.646;2023-03-08T07:49:19;98931.16;;;4.48;99.23
74218;BME280;62579;47.288;18.646;2023-03-08T07:51:44;98931.88;;;4.48;99.57
74218;BME280;62579;47.288;18.646;2023-03-08T07:54:10;98942.81;;;4.65;98.47
74218;BME280;62579;47.288;18.646;2023-03-08T07:56:35;98945.12;;;4.77;98.22
74218;BME280;62579;47.288;18.646;2023-03-08T07:59:00;98941.06;;;4.93;97.13
74218;BME280;62579;47.288;18.646;2023-03-08T08:01:26;98946.53;;;5.04;96.58
74218;BME280;62579;47.288;18.646;2023-03-08T08:03:51;98952.28;;;5.17;96.34
74218;BME280;62579;47.288;18.646;2023-03-08T08:06:16;98946.69;;;5.26;95.74
74218;BME280;62579;47.288;18.646;2023-03-08T08:08:41;98948.97;;;5.39;95.27
74218;BME280;62579;47.288;18.646;2023-03-08T08:11:11;98946.31;;;5.44;95.23
74218;BME280;62579;47.288;18.646;2023-03-08T08:13:36;98946.38;;;5.56;95.84
74218;BME280;62579;47.288;18.646;2023-03-08T08:16:01;98948.87;;;5.70;95.47
74218;BME280;62579;47.288;18.646;2023-03-08T08:18:27;98944.28;;;5.82;93.50
74218;BME280;62579;47.288;18.646;2023-03-08T08:21:00;98940.19;;;5.97;92.93
74218;BME280;62579;47.288;18.646;2023-03-08T08:23:25;98945.88;;;6.11;91.48
74218;BME280;62579;47.288;18.646;2023-03-08T08:25:51;98942.22;;;6.25;88.74
74218;BME280;62579;47.288;18.646;2023-03-08T08:28:16;98952.06;;;6.28;87.72
74218;BME280;62579;47.288;18.646;2023-03-08T08:30:41;98936.34;;;6.32;87.94
74218;BME280;62579;47.288;18.646;2023-03-08T08:33:06;98940.06;;;6.40;87.71
74218;BME280;62579;47.288;18.646;2023-03-08T08:35:31;98941.53;;;6.46;87.99
74218;BME280;62579;47.288;18.646;2023-03-08T08:37:57;98936.88;;;6.58;86.56
74218;BME280;62579;47.288;18.646;2023-03-08T08:40:22;98932.94;;;6.59;86.33
74218;BME280;62579;47.288;18.646;2023-03-08T08:42:47;98927.06;;;6.72;86.51
74218;BME280;62579;47.288;18.646;2023-03-08T08:45:12;98925.56;;;6.82;85.93
74218;BME280;62579;47.288;18.646;2023-03-08T08:47:37;98932.19;;;6.97;85.28
74218;BME280;62579;47.288;18.646;2023-03-08T08:50:03;98932.19;;;7.03;84.94
74218;BME280;62579;47.288;18.646;2023-03-08T08:52:28;98934.66;;;7.01;83.01
74218;BME280;62579;47.288;18.646;2023-03-08T08:54:53;98935.13;;;7.16;82.34
74218;BME280;62579;47.288;18.646;2023-03-08T08:57:20;98928.25;;;7.20;81.19
74218;BME280;62579;47.288;18.646;2023-03-08T08:59:46;98922.34;;;7.22;81.05
74218;BME280;62579;47.288;18.646;2023-03-08T09:02:11;98925.03;;;7.22;80.18
74218;BME280;62579;47.288;18.646;2023-03-08T09:04:36;98919.37;;;7.31;80.30
74218;BME280;62579;47.288;18.646;2023-03-08T09:07:02;98932.88;;;7.42;80.12
74218;BME280;62579;47.288;18.646;2023-03-08T09:09:27;98928.44;;;7.50;79.60
74218;BME280;62579;47.288;18.646;2023-03-08T09:11:52;98921.47;;;7.66;78.08
74218;BME280;62579;47.288;18.646;2023-03-08T09:14:17;98917.06;;;7.63;76.27
74218;BME280;62579;47.288;18.646;2023-03-08T09:16:42;98920.94;;;7.73;76.03
74218;BME280;62579;47.288;18.646;2023-03-08T09:19:08;98929.03;;;7.84;75.95
74218;BME280;62579;47.288;18.646;2023-03-08T09:21:33;98928.25;;;7.95;74.69
74218;BME280;62579;47.288;18.646;2023-03-08T09:24:00;98928.44;;;8.02;74.17
74218;BME280;62579;47.288;18.646;2023-03-08T09:26:27;98924.00;;;8.05;72.71
74218;BME280;62579;47.288;18.646;2023-03-08T09:28:53;98916.75;;;8.24;72.22
74218;BME280;62579;47.288;18.646;2023-03-08T09:31:18;98917.50;;;8.24;69.50
74218;BME280;62579;47.288;18.646;2023-03-08T09:33:44;98919.91;;;8.39;69.75
74218;BME280;62579;47.288;18.646;2023-03-08T09:36:10;98915.47;;;8.36;69.75
74218;BME280;62579;47.288;18.646;2023-03-08T09:38:35;98908.78;;;8.42;69.40
74218;BME280;62579;47.288;18.646;2023-03-08T09:44:02;98900.56;;;8.54;68.74
74218;BME280;62579;47.288;18.646;2023-03-08T09:46:12;98895.28;;;8.67;67.71
74218;BME280;62579;47.288;18.646;2023-03-08T09:48:38;98898.84;;;8.80;66.69
74218;BME280;62579;47.288;18.646;2023-03-08T09:51:09;98906.25;;;8.80;66.54
74218;BME280;62579;47.288;18.646;2023-03-08T09:53:38;98900.91;;;8.98;64.73
74218;BME280;62579;47.288;18.646;2023-03-08T09:56:14;98899.84;;;9.07;65.42
74218;BME280;62579;47.288;18.646;2023-03-08T09:58:42;98890.69;;;9.10;63.48
74218;BME280;62579;47.288;18.646;2023-03-08T10:04:01;98883.22;;;9.40;62.54
74218;BME280;62579;47.288;18.646;2023-03-08T10:06:54;98879.13;;;9.52;60.11
74218;BME280;62579;47.288;18.646;2023-03-08T10:14:31;98861.97;;;10.19;56.12
74218;BME280;62579;47.288;18.646;2023-03-08T10:17:03;98861.66;;;10.04;56.95
74218;BME280;62579;47.288;18.646;2023-03-08T10:19:36;98869.94;;;10.11;55.98
74218;BME280;62579;47.288;18.646;2023-03-08T10:22:24;98872.41;;;10.15;56.61
74218;BME280;62579;47.288;18.646;2023-03-08T10:27:22;98869.59;;;10.02;54.82
74218;BME280;62579;47.288;18.646;2023-03-08T10:29:53;98872.75;;;10.06;54.42
74218;BME280;62579;47.288;18.646;2023-03-08T10:32:19;98871.56;;;10.01;54.31
74218;BME280;62579;47.288;18.646;2023-03-08T10:34:44;98874.69;;;9.92;54.23
74218;BME280;62579;47.288;18.646;2023-03-08T10:37:09;98878.19;;;10.06;53.17
74218;BME280;62579;47.288;18.646;2023-03-08T10:39:35;98865.47;;;10.33;53.26
74218;BME280;62579;47.288;18.646;2023-03-08T10:42:01;98874.81;;;10.37;52.59
74218;BME280;62579;47.288;18.646;2023-03-08T10:46:57;98872.84;;;10.51;51.54
74218;BME280;62579;47.288;18.646;2023-03-08T10:49:22;98866.91;;;10.65;50.32
74218;BME280;62579;47.288;18.646;2023-03-08T10:51:52;98857.41;;;10.72;50.03
74218;BME280;62579;47.288;18.646;2023-03-08T10:54:18;98857.75;;;10.81;49.22
74218;BME280;62579;47.288;18.646;2023-03-08T10:56:44;98844.03;;;10.74;49.60
74218;BME280;62579;47.288;18.646;2023-03-08T10:59:15;98850.72;;;10.73;49.70
74218;BME280;62579;47.288;18.646;2023-03-08T11:01:48;98848.19;;;10.62;50.06
74218;BME280;62579;47.288;18.646;2023-03-08T11:04:15;98848.75;;;10.86;50.94
74218;BME280;62579;47.288;18.646;2023-03-08T11:06:40;98844.69;;;10.93;47.51
74218;BME280;62579;47.288;18.646;2023-03-08T11:11:46;98845.72;;;10.90;48.50
74218;BME280;62579;47.288;18.646;2023-03-08T11:14:11;98839.25;;;11.06;48.66
74218;BME280;62579;47.288;18.646;2023-03-08T11:19:18;98831.56;;;10.78;50.98
74218;BME280;62579;47.288;18.646;2023-03-08T11:29:36;98821.75;;;11.15;48.22
74218;BME280;62579;47.288;18.646;2023-03-08T11:37:47;98817.34;;;11.12;46.98
74218;BME280;62579;47.288;18.646;2023-03-08T11:45:19;98817.88;;;11.23;46.77
74218;BME280;62579;47.288;18.646;2023-03-08T11:47:50;98822.38;;;11.21;46.82
74218;BME280;62579;47.288;18.646;2023-03-08T11:50:32;98808.88;;;11.15;47.02
74218;BME280;62579;47.288;18.646;2023-03-08T12:00:42;98803.09;;;10.93;49.22
74218;BME280;62579;47.288;18.646;2023-03-08T12:03:12;98800.38;;;11.19;48.96
74218;BME280;62579;47.288;18.646;2023-03-08T12:05:39;98801.31;;;11.34;48.69
74218;BME280;62579;47.288;18.646;2023-03-08T12:08:17;98799.75;;;11.26;48.31
74218;BME280;62579;47.288;18.646;2023-03-08T12:15:53;98785.72;;;11.22;48.07
74218;BME280;62579;47.288;18.646;2023-03-08T12:20:45;98788.94;;;11.33;47.51
74218;BME280;62579;47.288;18.646;2023-03-08T12:25:46;98782.44;;;11.36;47.87
74218;BME280;62579;47.288;18.646;2023-03-08T12:28:23;98775.84;;;11.19;47.66
74218;BME280;62579;47.288;18.646;2023-03-08T12:30:53;98770.31;;;11.11;48.42
74218;BME280;62579;47.288;18.646;2023-03-08T12:33:25;98764.53;;;11.28;47.79
74218;BME280;62579;47.288;18.646;2023-03-08T12:35:56;98751.50;;;11.47;46.41
74218;BME280;62579;47.288;18.646;2023-03-08T12:40:51;98726.94;;;11.94;47.09
74218;BME280;62579;47.288;18.646;2023-03-08T12:48:23;98705.06;;;12.07;47.71
74218;BME280;62579;47.288;18.646;2023-03-08T12:55:59;98679.62;;;12.40;47.60
74218;BME280;62579;47.288;18.646;2023-03-08T12:58:25;98669.97;;;12.68;46.38
74218;BME280;62579;47.288;18.646;2023-03-08T13:00:56;98648.69;;;12.66;46.59
74218;BME280;62579;47.288;18.646;2023-03-08T13:03:24;98641.09;;;12.44;48.24
74218;BME280;62579;47.288;18.646;2023-03-08T13:05:50;98637.13;;;12.17;48.11
74218;BME280;62579;47.288;18.646;2023-03-08T13:08:17;98633.00;;;12.23;48.32
74218;BME280;62579;47.288;18.646;2023-03-08T13:15:48;98622.47;;;11.99;50.88
74218;BME280;62579;47.288;18.646;2023-03-08T13:18:14;98610.00;;;12.11;50.23
74218;BME280;62579;47.288;18.646;2023-03-08T13:23:49;98603.28;;;12.12;51.08
74218;BME280;62579;47.288;18.646;2023-03-08T13:28:54;98607.19;;;12.68;50.93
74218;BME280;62579;47.288;18.646;2023-03-08T13:31:21;98607.44;;;12.85;50.33
74218;BME280;62579;47.288;18.646;2023-03-08T13:33:48;98601.25;;;12.92;51.22
74218;BME280;62579;47.288;18.646;2023-03-08T13:36:34;98599.91;;;12.27;51.59
74218;BME280;62579;47.288;18.646;2023-03-08T13:39:01;98593.91;;;12.00;52.33
74218;BME280;62579;47.288;18.646;2023-03-08T13:41:38;98591.09;;;12.13;53.20
74218;BME280;62579;47.288;18.646;2023-03-08T13:44:13;98582.87;;;12.05;53.16
74218;BME280;62579;47.288;18.646;2023-03-08T13:46:39;98572.69;;;12.06;52.70
74218;BME280;62579;47.288;18.646;2023-03-08T13:51:41;98571.31;;;11.92;53.83
74218;BME280;62579;47.288;18.646;2023-03-08T13:54:11;98573.22;;;11.76;55.40
74218;BME280;62579;47.288;18.646;2023-03-08T13:56:38;98562.19;;;11.61;55.51
74218;BME280;62579;47.288;18.646;2023-03-08T13:59:03;98564.22;;;11.89;55.02
74218;BME280;62579;47.288;18.646;2023-03-08T14:01:29;98559.22;;;11.72;55.64
74218;BME280;62579;47.288;18.646;2023-03-08T14:03:54;98564.94;;;11.89;55.43
74218;BME280;62579;47.288;18.646;2023-03-08T14:08:45;98564.22;;;12.17;57.32
74218;BME280;62579;47.288;18.646;2023-03-08T14:11:15;98562.34;;;12.04;56.02
74218;BME280;62579;47.288;18.646;2023-03-08T14:13:44;98566.28;;;12.32;55.58
74218;BME280;62579;47.288;18.646;2023-03-08T14:16:21;98564.12;;;12.38;55.78
74218;BME280;62579;47.288;18.646;2023-03-08T14:18:47;98564.38;;;12.55;55.19
74218;BME280;62579;47.288;18.646;2023-03-08T14:23:39;98579.03;;;12.01;56.09
74218;BME280;62579;47.288;18.646;2023-03-08T14:26:05;98562.78;;;11.88;56.37